createdAt,value
2019-02-10T00:00:09.148Z,74.68
2019-02-10T00:05:28.079Z,75.43
2019-02-10T00:10:47.400Z,78.07
2019-02-10T00:16:09.627Z,77.77
2019-02-10T00:21:27.562Z,78.36
2019-02-10T00:26:45.197Z,79.37
2019-02-10T00:32:03.569Z,79.78
2019-02-10T00:37:22.021Z,80.67
2019-02-10T00:42:39.598Z,81.09
2019-02-10T00:47:57.115Z,81.37
2019-02-10T00:53:14.201Z,81.25
2019-02-10T00:58:31.688Z,81.64
2019-02-10T01:03:49.152Z,82.17
2019-02-10T01:09:06.481Z,81.89
2019-02-10T01:14:23.850Z,82.09
2019-02-10T01:19:42.765Z,82.84
2019-02-10T01:25:00.316Z,83.09
2019-02-10T01:30:18.652Z,82.86
2019-02-10T01:35:36.821Z,83.78
2019-02-10T01:40:53.951Z,83.64
2019-02-10T01:46:11.061Z,83.81
2019-02-10T01:51:28.715Z,83.67
2019-02-10T01:56:46.154Z,84.21
2019-02-10T02:02:03.925Z,83.46
2019-02-10T02:07:21.380Z,84.26
2019-02-10T02:12:39.261Z,84.14
2019-02-10T02:17:56.284Z,84.31
2019-02-10T02:23:13.896Z,84.19
2019-02-10T02:28:31.480Z,84.95
2019-02-10T02:33:49.735Z,85.45
2019-02-10T02:39:06.945Z,85.20
2019-02-10T02:44:24.438Z,85.82
2019-02-10T02:49:41.462Z,85.39
2019-02-10T02:54:58.422Z,84.70
2019-02-10T03:00:15.915Z,84.77
2019-02-10T03:05:33.789Z,84.17
2019-02-10T03:10:51.680Z,84.86
2019-02-10T03:16:09.731Z,84.86
2019-02-10T03:21:26.604Z,84.17
2019-02-10T03:26:43.938Z,84.13
2019-02-10T03:32:01.515Z,84.20
2019-02-10T03:37:26.793Z,84.36
2019-02-10T03:42:35.940Z,84.29
2019-02-10T03:47:53.049Z,85.48
2019-02-10T03:53:11.832Z,84.80
2019-02-10T03:58:29.103Z,84.33
2019-02-10T04:03:46.243Z,84.29
2019-02-10T04:09:03.383Z,84.74
2019-02-10T04:14:20.824Z,85.16
2019-02-10T04:19:38.804Z,85.18
2019-02-10T04:24:57.515Z,84.73
2019-02-10T04:30:15.700Z,84.72
2019-02-10T04:35:33.495Z,85.05
2019-02-10T04:40:50.479Z,84.33
2019-02-10T04:46:07.529Z,84.12
2019-02-10T04:51:25.112Z,84.17
2019-02-10T04:56:43.581Z,84.41
2019-02-10T05:02:01.674Z,84.79
2019-02-10T05:07:19.502Z,84.68
2019-02-10T05:12:36.856Z,84.24
2019-02-10T05:17:55.201Z,84.05
2019-02-10T05:23:17.352Z,84.32
2019-02-10T05:28:55.280Z,84.42
2019-02-10T05:34:12.405Z,84.17
2019-02-10T05:39:30.302Z,84.25
2019-02-10T05:44:47.671Z,84.18
2019-02-10T05:50:06.136Z,84.43
2019-02-10T05:55:23.155Z,84.15
2019-02-10T06:00:41.835Z,84.96
2019-02-10T06:06:00.012Z,84.72
2019-02-10T06:11:17.803Z,85.62
2019-02-10T06:16:36.787Z,85.19
2019-02-10T06:21:56.312Z,85.18
2019-02-10T06:27:14.999Z,85.58
2019-02-10T06:32:33.383Z,85.73
2019-02-10T06:37:50.927Z,85.28
2019-02-10T06:43:08.203Z,84.88
2019-02-10T06:48:26.444Z,84.52
2019-02-10T06:53:43.623Z,83.82
2019-02-10T06:59:00.905Z,83.41
2019-02-10T07:04:22.089Z,83.79
2019-02-10T07:09:40.216Z,83.88
2019-02-10T07:15:02.654Z,83.52
2019-02-10T07:20:40.029Z,83.34
2019-02-10T07:26:01.426Z,83.16
2019-02-10T07:31:24.980Z,82.22
2019-02-10T07:37:04.764Z,83.09
2019-02-10T07:42:40.323Z,82.58
2019-02-10T07:48:03.016Z,81.95
2019-02-10T07:53:33.883Z,80.78
2019-02-10T07:58:59.646Z,79.28
2019-02-10T08:04:32.971Z,79.00
2019-02-10T08:10:08.080Z,78.03
2019-02-10T08:15:33.123Z,77.34
2019-02-10T08:21:03.242Z,75.71
2019-02-10T08:26:39.679Z,75.63
2019-02-10T08:32:28.512Z,74.47
2019-02-10T08:37:55.686Z,74.50
2019-02-10T08:43:44.863Z,73.75
2019-02-10T08:49:30.492Z,73.83
2019-02-10T08:54:48.522Z,73.91
2019-02-10T09:00:05.600Z,71.74
2019-02-10T09:05:23.056Z,71.03
2019-02-10T09:10:40.879Z,69.83
2019-02-10T09:15:58.539Z,69.45
2019-02-10T09:21:16.350Z,68.44
2019-02-10T09:26:33.544Z,68.07
2019-02-10T09:31:51.121Z,68.31
2019-02-10T09:37:08.529Z,66.48
2019-02-10T09:42:26.583Z,66.21
2019-02-10T09:47:45.386Z,66.47
2019-02-10T09:53:02.623Z,65.22
2019-02-10T09:58:22.457Z,64.73
2019-02-10T10:03:38.141Z,64.43
2019-02-10T10:08:55.442Z,62.97
2019-02-10T10:14:12.592Z,63.41
2019-02-10T10:19:29.631Z,61.91
2019-02-10T10:24:50.602Z,62.16
2019-02-10T10:30:05.322Z,60.48
2019-02-10T10:35:23.217Z,59.09
2019-02-10T10:40:41.736Z,58.28
2019-02-10T10:46:00.725Z,58.16
2019-02-10T10:51:16.601Z,56.24
2019-02-10T10:56:34.461Z,55.54
2019-02-10T11:01:52.252Z,52.67
2019-02-10T11:07:11.683Z,52.86
2019-02-10T11:12:29.272Z,45.21
2019-02-10T11:17:47.019Z,40.81
2019-02-10T11:23:05.723Z,38.41
2019-02-10T11:28:22.795Z,41.59
2019-02-10T11:33:40.417Z,40.15
2019-02-10T11:38:58.684Z,39.77
2019-02-10T11:44:16.075Z,42.64
2019-02-10T11:49:33.630Z,43.71
2019-02-10T11:54:51.064Z,43.21
2019-02-10T12:00:09.208Z,43.92
2019-02-10T12:05:26.777Z,44.37
2019-02-10T12:10:45.201Z,44.32
2019-02-10T12:16:04.272Z,45.38
2019-02-10T12:21:21.801Z,45.13
2019-02-10T12:26:39.795Z,46.09
2019-02-10T12:31:58.014Z,47.48
2019-02-10T12:37:16.024Z,48.50
2019-02-10T12:42:33.801Z,50.09
2019-02-10T12:47:51.574Z,49.30
2019-02-10T12:53:09.242Z,50.11
2019-02-10T12:58:26.921Z,49.58
2019-02-10T13:03:59.685Z,48.20
2019-02-10T13:09:17.520Z,49.15
2019-02-10T13:14:35.185Z,50.12
2019-02-10T13:19:52.678Z,52.36
2019-02-10T13:25:17.173Z,53.31
2019-02-10T13:30:34.986Z,53.55
2019-02-10T13:35:53.135Z,53.67
2019-02-10T13:41:10.908Z,53.15
2019-02-10T13:46:28.086Z,54.13
2019-02-10T13:51:46.177Z,55.15
2019-02-10T13:57:03.737Z,56.14
2019-02-10T14:02:21.266Z,55.27
2019-02-10T14:07:39.544Z,53.89
2019-02-10T14:13:01.753Z,52.40
2019-02-10T14:18:20.335Z,50.74
2019-02-10T14:23:38.301Z,49.08
2019-02-10T14:28:57.008Z,51.03
2019-02-10T14:34:17.196Z,50.94
2019-02-10T14:39:35.349Z,50.22
2019-02-10T14:44:53.773Z,56.33
2019-02-10T14:50:13.236Z,56.40
2019-02-10T14:55:30.983Z,57.88
2019-02-10T15:00:49.898Z,57.88
2019-02-10T15:06:07.695Z,57.51
2019-02-10T15:11:25.801Z,58.41
2019-02-10T15:16:43.206Z,59.67
2019-02-10T15:22:00.475Z,60.61
2019-02-10T15:27:18.377Z,62.43
2019-02-10T15:32:36.318Z,63.14
2019-02-10T15:37:53.610Z,64.11
2019-02-10T15:43:11.249Z,64.93
2019-02-10T15:48:29.539Z,65.29
2019-02-10T15:53:47.955Z,66.39
2019-02-10T15:59:06.357Z,67.92
2019-02-10T16:04:26.392Z,68.36
2019-02-10T16:09:42.609Z,68.93
2019-02-10T16:15:01.713Z,69.87
2019-02-10T16:20:22.384Z,69.09
2019-02-10T16:25:40.925Z,70.47
2019-02-10T16:30:58.026Z,72.79
2019-02-10T16:36:16.695Z,72.37
2019-02-10T16:41:35.050Z,73.47
2019-02-10T16:46:52.438Z,74.27
2019-02-10T16:52:11.077Z,74.25
2019-02-10T16:57:30.010Z,76.28
2019-02-10T17:02:47.568Z,76.31
2019-02-10T17:08:05.164Z,76.76
2019-02-10T17:13:23.907Z,75.96
2019-02-10T17:18:43.672Z,76.25
2019-02-10T17:24:01.108Z,77.08
2019-02-10T17:29:19.289Z,79.26
2019-02-10T17:34:37.455Z,80.14
2019-02-10T17:39:55.296Z,79.45
2019-02-10T17:45:14.448Z,79.43
2019-02-10T17:50:31.829Z,79.67
2019-02-10T17:55:49.815Z,78.72
2019-02-10T18:01:07.405Z,80.15
2019-02-10T18:06:25.587Z,78.97
2019-02-10T18:11:44.071Z,80.17
2019-02-10T18:17:07.561Z,80.10
2019-02-10T18:22:36.063Z,79.12
2019-02-10T18:28:15.840Z,80.29
2019-02-10T18:34:04.967Z,79.94
2019-02-10T18:39:42.090Z,79.36
2019-02-10T18:45:13.970Z,78.94
2019-02-10T18:50:50.711Z,79.39
2019-02-10T18:56:16.446Z,78.46
2019-02-10T19:01:59.443Z,79.11
2019-02-10T19:07:42.635Z,80.54
2019-02-10T19:13:09.669Z,79.54
2019-02-10T19:18:42.426Z,79.80
2019-02-10T19:24:22.709Z,79.46
2019-02-10T19:29:59.453Z,79.12
2019-02-10T19:35:36.597Z,79.07
2019-02-10T19:41:28.952Z,79.03
2019-02-10T19:47:06.359Z,79.63
2019-02-10T19:52:48.371Z,80.17
2019-02-10T19:58:30.592Z,79.88
2019-02-10T20:04:07.911Z,80.52
2019-02-10T20:09:48.594Z,79.73
2019-02-10T20:15:17.085Z,80.67
2019-02-10T20:21:00.512Z,80.46
2019-02-10T20:26:36.202Z,80.63
2019-02-10T20:32:13.912Z,79.86
2019-02-10T20:37:47.437Z,80.06
2019-02-10T20:43:23.095Z,79.74
2019-02-10T20:48:58.964Z,79.72
2019-02-10T20:54:38.494Z,79.88
2019-02-10T21:00:14.103Z,79.78
2019-02-10T21:05:49.255Z,79.94
2019-02-10T21:11:26.755Z,81.78
2019-02-10T21:16:53.106Z,81.14
2019-02-10T21:22:25.286Z,84.50
2019-02-10T21:28:03.000Z,86.86
2019-02-10T21:33:25.975Z,87.56
2019-02-10T21:38:52.324Z,89.67
2019-02-10T21:44:33.103Z,89.97
2019-02-10T21:49:51.066Z,90.80
2019-02-10T21:55:10.248Z,90.74
2019-02-10T22:00:29.020Z,91.49
2019-02-10T22:05:48.398Z,91.40
2019-02-10T22:11:08.812Z,91.47
2019-02-10T22:16:28.709Z,90.54
2019-02-10T22:21:47.264Z,91.29
2019-02-10T22:27:06.247Z,89.63
2019-02-10T22:32:24.605Z,89.79
2019-02-10T22:37:43.889Z,89.14
2019-02-10T22:43:02.073Z,88.85
2019-02-10T22:48:20.927Z,86.25
2019-02-10T22:53:39.687Z,81.81
2019-02-10T22:58:59.173Z,81.22
2019-02-10T23:04:17.257Z,82.89
2019-02-10T23:09:36.818Z,81.23
2019-02-10T23:14:56.466Z,80.99
2019-02-10T23:20:15.077Z,79.18
2019-02-10T23:25:33.133Z,75.16
2019-02-10T23:30:52.819Z,78.43
2019-02-10T23:36:12.413Z,74.72
2019-02-10T23:41:31.798Z,70.17
2019-02-10T23:46:50.263Z,74.59
2019-02-10T23:52:09.133Z,72.94
2019-02-10T23:57:28.214Z,74.37
